Time;durP1;ratioP1;P1;durP2;ratioP2;P2;SDS_P1;SDS_P2;PMS_P1;PMS_P2;Temp;Humidity;BMP_temperature;BMP_pressure;BME280_temperature;BME280_humidity;BME280_pressure;Samples;Min_cycle;Max_cycle;Signal;HPM_P1;HPM_P2
2023/09/26 00:02:02;;;;;;;;;;;15.80;99.90;;;;;;4930457;29;20297;-86
2023/09/26 00:04:28;;;;;;;;;;;15.70;99.90;;;;;;4931829;29;20009;-86
2023/09/26 00:06:57;;;;;;;;;;;15.70;99.90;;;;;;4930797;29;19953;-86
2023/09/26 00:09:23;;;;;;;;;;;15.70;99.90;;;;;;4915699;29;20263;-86
2023/09/26 00:11:48;;;;;;;;;;;15.70;99.90;;;;;;4914669;29;19931;-86
2023/09/26 00:14:14;;;;;;;;;;;15.70;99.90;;;;;;4931273;29;19966;-86
2023/09/26 00:16:39;;;;;;;;;;;15.70;99.90;;;;;;4970504;28;19926;-86
2023/09/26 00:19:05;;;;;;;;;;;15.70;99.90;;;;;;4914458;29;19950;-86
2023/09/26 00:21:31;;;;;;;;;;;15.70;99.90;;;;;;4910873;28;20001;-87
2023/09/26 00:23:57;;;;;;;;;;;15.70;99.90;;;;;;4930784;29;19926;-88
2023/09/26 00:26:22;;;;;;;;;;;15.70;99.90;;;;;;4930750;29;19934;-86
2023/09/26 00:28:48;;;;;;;;;;;15.60;99.90;;;;;;4931956;28;19930;-86
2023/09/26 00:31:13;;;;;;;;;;;15.70;99.90;;;;;;4930159;28;19981;-86
2023/09/26 00:33:39;;;;;;;;;;;15.60;99.90;;;;;;4932798;28;19934;-86
2023/09/26 00:36:08;;;;;;;;;;;15.60;99.90;;;;;;4914324;28;19927;-86
2023/09/26 00:38:34;;;;;;;;;;;15.60;99.90;;;;;;4931219;29;19973;-86
2023/09/26 00:41:00;;;;;;;;;;;15.60;99.90;;;;;;4931160;28;19927;-86
2023/09/26 00:43:25;;;;;;;;;;;15.70;99.90;;;;;;4931332;29;19933;-86
2023/09/26 00:45:53;;;;;;;;;;;15.60;99.90;;;;;;4983704;28;20373;-86
2023/09/26 00:48:19;;;;;;;;;;;15.60;99.90;;;;;;4932078;29;19927;-87
2023/09/26 00:50:45;;;;;;;;;;;15.60;99.90;;;;;;4929959;28;19934;-86
2023/09/26 00:53:10;;;;;;;;;;;15.60;99.90;;;;;;4930876;29;19927;-86
2023/09/26 00:55:37;;;;;;;;;;;15.50;99.90;;;;;;4937648;28;19931;-86
2023/09/26 00:58:03;;;;;;;;;;;15.50;99.90;;;;;;4924507;28;19927;-86
2023/09/26 01:00:28;;;;;;;;;;;15.50;99.90;;;;;;4930774;29;19934;-86
2023/09/26 01:02:54;;;;;;;;;;;15.50;99.90;;;;;;4931361;28;20252;-86
2023/09/26 01:05:20;;;;;;;;;;;15.40;99.90;;;;;;4933765;28;20386;-89
2023/09/26 01:07:46;;;;;;;;;;;15.40;99.90;;;;;;4932091;29;19985;-87
2023/09/26 01:10:12;;;;;;;;;;;15.30;99.90;;;;;;4930226;29;20344;-86
2023/09/26 01:12:38;;;;;;;;;;;15.30;99.90;;;;;;4931221;29;20026;-86
2023/09/26 01:15:05;;;;;;;;;;;15.30;99.90;;;;;;4914091;29;20382;-85
2023/09/26 01:17:32;;;;;;;;;;;15.20;99.90;;;;;;4931936;28;19927;-86
2023/09/26 01:19:57;;;;;;;;;;;15.10;99.90;;;;;;4914806;29;20471;-86
2023/09/26 01:22:25;;;;;;;;;;;15.10;99.90;;;;;;4929215;29;19927;-86
2023/09/26 01:24:51;;;;;;;;;;;15.00;99.90;;;;;;4930221;29;19935;-86
2023/09/26 01:27:17;;;;;;;;;;;15.00;99.90;;;;;;4930959;28;20014;-86
2023/09/26 01:29:43;;;;;;;;;;;14.90;99.90;;;;;;4930816;29;20009;-85
2023/09/26 01:32:08;;;;;;;;;;;14.80;99.90;;;;;;4928608;29;19934;-86
2023/09/26 01:34:34;;;;;;;;;;;14.80;99.90;;;;;;4930203;29;19939;-86
2023/09/26 01:36:59;;;;;;;;;;;14.80;99.90;;;;;;4940141;28;20009;-86
2023/09/26 01:39:25;;;;;;;;;;;14.70;99.90;;;;;;4931723;29;19931;-86
2023/09/26 01:41:51;;;;;;;;;;;14.70;99.90;;;;;;4929599;28;20021;-86
2023/09/26 01:44:16;;;;;;;;;;;14.70;99.90;;;;;;4915276;29;19970;-86
2023/09/26 01:46:42;;;;;;;;;;;14.70;99.90;;;;;;4931834;29;19927;-86
2023/09/26 01:49:08;;;;;;;;;;;14.60;99.90;;;;;;4933966;29;19938;-85
2023/09/26 01:51:33;;;;;;;;;;;14.60;99.90;;;;;;4933124;28;19927;-87
2023/09/26 01:53:59;;;;;;;;;;;14.50;99.90;;;;;;4932987;29;19949;-86
2023/09/26 01:56:24;;;;;;;;;;;14.50;99.90;;;;;;4904522;29;19926;-86
2023/09/26 01:58:50;;;;;;;;;;;14.40;99.90;;;;;;4932883;28;19934;-86
2023/09/26 02:01:15;;;;;;;;;;;14.40;99.90;;;;;;4917979;29;19933;-86
2023/09/26 02:03:41;;;;;;;;;;;14.40;99.90;;;;;;4933507;29;19930;-86
2023/09/26 02:06:07;;;;;;;;;;;14.30;99.90;;;;;;4933890;29;20009;-86
2023/09/26 02:08:32;;;;;;;;;;;14.30;99.90;;;;;;4915415;29;20001;-86
2023/09/26 02:10:58;;;;;;;;;;;14.20;99.90;;;;;;4917761;29;20374;-87
2023/09/26 02:13:25;;;;;;;;;;;14.10;99.90;;;;;;4916640;29;20659;-86
2023/09/26 02:15:50;;;;;;;;;;;14.10;99.90;;;;;;4933036;29;19927;-86
2023/09/26 02:18:16;;;;;;;;;;;14.10;99.90;;;;;;4933275;28;20018;-86
2023/09/26 02:20:41;;;;;;;;;;;14.10;99.90;;;;;;4933491;28;19931;-85
2023/09/26 02:23:07;;;;;;;;;;;14.00;99.90;;;;;;4932914;29;19927;-86
2023/09/26 02:25:32;;;;;;;;;;;13.90;99.90;;;;;;4933889;28;19985;-87
2023/09/26 02:27:58;;;;;;;;;;;13.90;99.90;;;;;;4932356;28;19931;-86
2023/09/26 02:30:26;;;;;;;;;;;13.80;99.90;;;;;;4934240;29;19926;-86
2023/09/26 02:32:51;;;;;;;;;;;13.70;99.90;;;;;;4932875;28;19935;-86
2023/09/26 02:35:19;;;;;;;;;;;13.70;99.90;;;;;;4931353;29;19989;-86
2023/09/26 02:37:45;;;;;;;;;;;13.60;99.90;;;;;;4932406;29;20438;-86
2023/09/26 02:40:12;;;;;;;;;;;13.60;99.90;;;;;;4935865;28;20435;-86
2023/09/26 02:42:43;;;;;;;;;;;13.60;99.90;;;;;;4933367;28;19977;-86
2023/09/26 02:45:10;;;;;;;;;;;13.60;99.90;;;;;;4932101;29;19930;-85
2023/09/26 02:47:35;;;;;;;;;;;13.50;99.90;;;;;;4933746;29;19981;-86
2023/09/26 02:50:01;;;;;;;;;;;13.40;99.90;;;;;;4931574;29;19930;-86
2023/09/26 02:52:27;;;;;;;;;;;13.40;99.90;;;;;;4932365;28;19927;-86
2023/09/26 02:54:52;;;;;;;;;;;13.30;99.90;;;;;;4931543;28;20393;-86
2023/09/26 02:57:18;;;;;;;;;;;13.30;99.90;;;;;;4940774;28;19927;-86
2023/09/26 02:59:44;;;;;;;;;;;13.30;99.90;;;;;;4932891;28;19927;-85
2023/09/26 03:02:09;;;;;;;;;;;13.20;99.90;;;;;;4932699;29;19937;-86
2023/09/26 03:04:35;;;;;;;;;;;13.20;99.90;;;;;;4932878;29;19927;-86
2023/09/26 03:07:01;;;;;;;;;;;13.20;99.90;;;;;;4915058;29;19934;-86
2023/09/26 03:09:26;;;;;;;;;;;13.20;99.90;;;;;;4932649;28;19927;-86
2023/09/26 03:11:52;;;;;;;;;;;13.20;99.90;;;;;;4933768;28;19933;-86
2023/09/26 03:14:18;;;;;;;;;;;13.20;99.90;;;;;;4932869;28;19933;-86
2023/09/26 03:16:44;;;;;;;;;;;13.20;99.90;;;;;;4931789;29;19974;-86
2023/09/26 03:19:10;;;;;;;;;;;13.10;99.90;;;;;;4932615;29;19985;-88
2023/09/26 03:21:36;;;;;;;;;;;13.00;99.90;;;;;;4931533;28;19933;-86
2023/09/26 03:24:01;;;;;;;;;;;13.00;99.90;;;;;;4932380;29;19935;-87
2023/09/26 03:26:27;;;;;;;;;;;12.90;99.90;;;;;;4915869;29;20013;-86
2023/09/26 03:28:53;;;;;;;;;;;12.80;99.90;;;;;;4932271;29;19933;-86
2023/09/26 03:31:18;;;;;;;;;;;12.70;99.90;;;;;;4931316;29;19931;-86
2023/09/26 03:33:44;;;;;;;;;;;12.70;99.90;;;;;;4932633;28;19933;-86
2023/09/26 03:36:09;;;;;;;;;;;12.70;99.90;;;;;;4931107;29;19934;-86
2023/09/26 03:38:35;;;;;;;;;;;12.70;99.90;;;;;;4932181;29;19934;-86
2023/09/26 03:41:01;;;;;;;;;;;12.60;99.90;;;;;;4931449;29;20001;-85
2023/09/26 03:43:27;;;;;;;;;;;12.60;99.90;;;;;;4932173;29;19949;-86
2023/09/26 03:45:54;;;;;;;;;;;12.60;99.90;;;;;;4932598;28;19934;-87
2023/09/26 03:48:19;;;;;;;;;;;12.60;99.90;;;;;;4914818;29;20396;-87
2023/09/26 03:50:46;;;;;;;;;;;12.60;99.90;;;;;;4909909;29;19935;-86
2023/09/26 03:53:13;;;;;;;;;;;12.60;99.90;;;;;;4944094;28;20032;-86
2023/09/26 03:55:39;;;;;;;;;;;12.60;99.90;;;;;;4937579;29;19931;-86
2023/09/26 03:58:06;;;;;;;;;;;12.50;99.90;;;;;;4938187;28;20014;-86
2023/09/26 04:00:31;;;;;;;;;;;12.50;99.90;;;;;;4931791;29;20053;-87
2023/09/26 04:02:57;;;;;;;;;;;12.50;99.90;;;;;;4915566;29;20017;-86
2023/09/26 04:05:23;;;;;;;;;;;12.50;99.90;;;;;;4932057;28;19934;-86
2023/09/26 04:07:48;;;;;;;;;;;12.40;99.90;;;;;;4931048;28;19927;-86
2023/09/26 04:10:14;;;;;;;;;;;12.40;99.90;;;;;;4931745;29;19997;-86
2023/09/26 04:12:39;;;;;;;;;;;12.40;99.90;;;;;;4931994;29;20534;-86
2023/09/26 04:15:05;;;;;;;;;;;12.40;99.90;;;;;;4932090;29;20386;-86
2023/09/26 04:17:31;;;;;;;;;;;12.40;99.90;;;;;;4916308;29;19954;-87
2023/09/26 04:19:57;;;;;;;;;;;12.40;99.90;;;;;;4931950;29;19927;-86
2023/09/26 04:22:23;;;;;;;;;;;12.40;99.90;;;;;;4930023;29;19931;-86
2023/09/26 04:24:48;;;;;;;;;;;12.30;99.90;;;;;;4932070;29;19981;-86
2023/09/26 04:27:14;;;;;;;;;;;12.40;99.90;;;;;;4931772;29;19977;-86
2023/09/26 04:29:40;;;;;;;;;;;12.30;99.90;;;;;;4929545;29;19989;-87
2023/09/26 04:32:06;;;;;;;;;;;12.40;99.90;;;;;;4929437;29;19926;-88
2023/09/26 04:34:32;;;;;;;;;;;12.30;99.90;;;;;;4931716;28;19930;-85
2023/09/26 04:36:57;;;;;;;;;;;12.30;99.90;;;;;;4931227;29;19965;-86
2023/09/26 04:39:23;;;;;;;;;;;12.40;99.90;;;;;;4929755;29;20378;-86
2023/09/26 04:41:49;;;;;;;;;;;12.40;99.90;;;;;;4928312;28;19928;-86
2023/09/26 04:44:14;;;;;;;;;;;12.40;99.90;;;;;;4922528;29;20382;-87
2023/09/26 04:46:40;;;;;;;;;;;12.40;99.90;;;;;;4931220;29;19934;-86
2023/09/26 04:49:06;;;;;;;;;;;12.40;99.90;;;;;;4915792;29;19934;-86
2023/09/26 04:51:31;;;;;;;;;;;12.40;99.90;;;;;;4929647;29;19930;-86
2023/09/26 04:53:59;;;;;;;;;;;12.40;99.90;;;;;;4929629;29;19938;-86
2023/09/26 04:56:24;;;;;;;;;;;12.40;99.90;;;;;;4941240;28;19938;-86
2023/09/26 04:58:50;;;;;;;;;;;12.40;99.90;;;;;;4928723;28;19928;-86
2023/09/26 05:01:16;;;;;;;;;;;12.40;99.90;;;;;;4924969;28;20010;-86
2023/09/26 05:03:42;;;;;;;;;;;12.40;99.90;;;;;;4930937;29;19931;-86
2023/09/26 05:06:08;;;;;;;;;;;12.40;99.90;;;;;;4929514;28;19927;-86
2023/09/26 05:08:33;;;;;;;;;;;12.40;99.90;;;;;;4931228;29;19927;-86
2023/09/26 05:10:59;;;;;;;;;;;12.40;99.90;;;;;;4932317;29;19950;-86
2023/09/26 05:13:24;;;;;;;;;;;12.30;99.90;;;;;;4931212;29;20065;-87
2023/09/26 05:15:51;;;;;;;;;;;12.30;99.90;;;;;;4930075;28;19977;-86
2023/09/26 05:18:16;;;;;;;;;;;12.30;99.90;;;;;;4931775;29;19934;-86
2023/09/26 05:20:42;;;;;;;;;;;12.20;99.90;;;;;;4934355;29;19927;-88
2023/09/26 05:23:07;;;;;;;;;;;12.20;99.90;;;;;;4917534;29;19926;-87
2023/09/26 05:25:33;;;;;;;;;;;12.20;99.90;;;;;;4933560;28;19927;-86
2023/09/26 05:27:59;;;;;;;;;;;12.20;99.90;;;;;;4933566;29;19927;-86
2023/09/26 05:30:25;;;;;;;;;;;12.20;99.90;;;;;;4940097;28;19992;-85
2023/09/26 05:32:50;;;;;;;;;;;12.20;99.90;;;;;;4936553;28;19927;-86
2023/09/26 05:35:16;;;;;;;;;;;12.20;99.90;;;;;;4921716;29;19931;-86
2023/09/26 05:37:42;;;;;;;;;;;12.30;99.90;;;;;;4932325;29;19935;-86
2023/09/26 05:40:08;;;;;;;;;;;12.30;99.90;;;;;;4935168;29;19931;-86
2023/09/26 05:42:38;;;;;;;;;;;12.30;99.90;;;;;;4918610;29;19927;-86
2023/09/26 05:45:08;;;;;;;;;;;12.30;99.90;;;;;;4933387;28;19926;-86
2023/09/26 05:47:34;;;;;;;;;;;12.30;99.90;;;;;;4932763;28;19934;-86
2023/09/26 05:50:00;;;;;;;;;;;12.40;99.90;;;;;;4932993;29;20337;-86
2023/09/26 05:52:26;;;;;;;;;;;12.40;99.90;;;;;;4932666;29;19927;-86
2023/09/26 05:54:52;;;;;;;;;;;12.50;99.90;;;;;;4933710;28;19931;-87
2023/09/26 05:57:18;;;;;;;;;;;12.50;99.90;;;;;;4926886;29;19926;-86
2023/09/26 05:59:43;;;;;;;;;;;12.50;99.90;;;;;;4933603;28;19927;-86
2023/09/26 06:02:11;;;;;;;;;;;12.60;99.90;;;;;;4933289;29;19939;-86
2023/09/26 06:04:41;;;;;;;;;;;12.70;99.90;;;;;;4934004;29;19934;-86
2023/09/26 06:07:07;;;;;;;;;;;12.70;99.90;;;;;;4933032;29;19933;-87
2023/09/26 06:09:32;;;;;;;;;;;12.80;99.90;;;;;;4933008;28;19930;-86
2023/09/26 06:11:58;;;;;;;;;;;12.90;99.90;;;;;;4932463;29;19934;-86
2023/09/26 06:14:23;;;;;;;;;;;12.90;99.90;;;;;;4914587;29;19927;-85
2023/09/26 06:16:49;;;;;;;;;;;12.90;99.90;;;;;;4928518;29;19934;-86
2023/09/26 06:19:14;;;;;;;;;;;13.00;99.90;;;;;;4931676;29;19950;-86
2023/09/26 06:21:40;;;;;;;;;;;13.10;99.90;;;;;;4917750;28;19927;-86
2023/09/26 06:24:06;;;;;;;;;;;13.10;99.90;;;;;;4917524;28;19935;-87
2023/09/26 06:26:32;;;;;;;;;;;13.10;99.90;;;;;;4902281;29;19933;-85
2023/09/26 06:28:58;;;;;;;;;;;13.10;99.90;;;;;;4918103;28;19974;-86
2023/09/26 06:31:23;;;;;;;;;;;13.10;99.90;;;;;;4917476;29;19927;-86
2023/09/26 06:33:49;;;;;;;;;;;13.20;99.90;;;;;;4933120;29;19927;-86
2023/09/26 06:36:17;;;;;;;;;;;13.20;99.90;;;;;;4933514;29;20393;-86
2023/09/26 06:38:43;;;;;;;;;;;13.30;99.90;;;;;;4931777;28;19927;-86
2023/09/26 06:41:09;;;;;;;;;;;13.30;99.90;;;;;;4948756;28;19927;-86
2023/09/26 06:43:36;;;;;;;;;;;13.40;99.90;;;;;;4932831;29;20285;-86
2023/09/26 06:46:08;;;;;;;;;;;13.50;99.90;;;;;;4933631;28;19931;-86
2023/09/26 06:48:42;;;;;;;;;;;13.60;99.90;;;;;;4933024;28;20044;-85
2023/09/26 06:51:08;;;;;;;;;;;13.60;99.90;;;;;;4930187;29;19927;-85
2023/09/26 06:53:34;;;;;;;;;;;13.70;99.90;;;;;;4932110;29;19950;-86
2023/09/26 06:56:09;;;;;;;;;;;13.80;99.90;;;;;;4940204;29;19926;-86
2023/09/26 06:58:35;;;;;;;;;;;13.80;99.90;;;;;;4932427;28;19927;-85
2023/09/26 07:01:01;;;;;;;;;;;13.90;99.90;;;;;;4930572;29;20374;-85
2023/09/26 07:03:27;;;;;;;;;;;14.00;99.90;;;;;;4927131;28;20032;-89
2023/09/26 07:05:56;;;;;;;;;;;14.00;99.90;;;;;;4921109;28;19926;-87
2023/09/26 07:08:22;;;;;;;;;;;14.10;99.90;;;;;;4928598;28;19935;-85
2023/09/26 07:10:48;;;;;;;;;;;14.20;99.90;;;;;;4932523;29;20000;-85
2023/09/26 07:13:13;;;;;;;;;;;14.30;99.90;;;;;;4931766;28;19930;-88
2023/09/26 07:15:42;;;;;;;;;;;14.30;99.90;;;;;;4958862;28;19935;-87
2023/09/26 07:18:09;;;;;;;;;;;14.40;99.90;;;;;;4933593;29;20017;-86
2023/09/26 07:20:47;;;;;;;;;;;14.50;99.90;;;;;;4932341;29;20021;-87
2023/09/26 07:23:13;;;;;;;;;;;14.50;99.90;;;;;;4941579;29;19981;-87
2023/09/26 07:25:39;;;;;;;;;;;14.60;99.90;;;;;;4939974;28;19978;-87
2023/09/26 07:28:05;;;;;;;;;;;14.70;99.90;;;;;;4929370;28;19927;-86
2023/09/26 07:30:31;;;;;;;;;;;14.80;99.90;;;;;;4929327;28;20694;-87
2023/09/26 07:32:56;;;;;;;;;;;14.90;99.90;;;;;;4932360;28;19927;-87
2023/09/26 07:35:23;;;;;;;;;;;15.00;99.90;;;;;;4931223;29;20458;-87
2023/09/26 07:37:49;;;;;;;;;;;15.10;99.90;;;;;;4945583;28;20283;-86
2023/09/26 07:40:14;;;;;;;;;;;15.30;99.90;;;;;;4928436;29;19930;-88
2023/09/26 07:42:40;;;;;;;;;;;15.30;99.90;;;;;;4932880;29;19933;-86
2023/09/26 07:45:06;;;;;;;;;;;15.50;99.90;;;;;;4932682;29;19938;-88
2023/09/26 07:47:32;;;;;;;;;;;15.60;99.90;;;;;;4932577;28;19934;-87
2023/09/26 07:49:57;;;;;;;;;;;15.70;99.90;;;;;;4931665;28;19927;-86
2023/09/26 07:52:26;;;;;;;;;;;15.90;99.90;;;;;;4899944;29;20083;-87
2023/09/26 07:54:52;;;;;;;;;;;16.00;99.90;;;;;;4931309;28;20416;-87
2023/09/26 07:57:17;;;;;;;;;;;16.10;99.90;;;;;;4933695;28;19927;-87
2023/09/26 07:59:43;;;;;;;;;;;16.20;99.90;;;;;;4925519;29;19946;-86
2023/09/26 08:02:08;;;;;;;;;;;16.40;99.90;;;;;;4915300;29;19946;-87
2023/09/26 08:04:34;;;;;;;;;;;16.50;99.90;;;;;;4936084;28;20017;-87
2023/09/26 08:06:59;;;;;;;;;;;16.60;99.90;;;;;;4899745;29;19989;-86
2023/09/26 08:09:25;;;;;;;;;;;16.70;99.90;;;;;;4937730;28;20030;-87
2023/09/26 08:11:50;;;;;;;;;;;16.90;99.90;;;;;;4930439;28;19927;-86
2023/09/26 08:14:16;;;;;;;;;;;17.00;99.90;;;;;;4932156;29;19931;-86
2023/09/26 08:16:42;;;;;;;;;;;17.10;99.90;;;;;;4931586;29;19935;-85
2023/09/26 08:19:07;;;;;;;;;;;17.20;99.90;;;;;;4932689;29;19973;-87
2023/09/26 08:21:33;;;;;;;;;;;17.30;99.90;;;;;;4916261;29;19934;-86
2023/09/26 08:23:58;;;;;;;;;;;17.40;99.90;;;;;;4932209;29;19931;-86
2023/09/26 08:26:24;;;;;;;;;;;17.40;99.90;;;;;;4930990;29;19938;-86
2023/09/26 08:28:50;;;;;;;;;;;17.50;99.90;;;;;;4939564;28;20284;-86
2023/09/26 08:31:17;;;;;;;;;;;17.60;99.90;;;;;;4956308;28;20014;-83
2023/09/26 08:33:43;;;;;;;;;;;17.60;99.90;;;;;;4928285;28;19941;-85
2023/09/26 08:36:15;;;;;;;;;;;17.60;99.90;;;;;;4933742;28;20013;-87
2023/09/26 08:38:45;;;;;;;;;;;17.60;99.90;;;;;;4931296;29;19926;-85
2023/09/26 08:41:11;;;;;;;;;;;17.60;99.90;;;;;;4933740;28;20394;-86
2023/09/26 08:43:37;;;;;;;;;;;17.50;99.90;;;;;;4928259;29;19927;-86
2023/09/26 08:46:04;;;;;;;;;;;17.50;99.90;;;;;;4921932;28;19927;-86
2023/09/26 08:48:30;;;;;;;;;;;17.60;99.90;;;;;;4930079;29;20017;-85
2023/09/26 08:50:55;;;;;;;;;;;17.60;99.90;;;;;;4930915;28;20010;-87
2023/09/26 08:53:21;;;;;;;;;;;17.60;99.90;;;;;;4931406;29;19942;-86
2023/09/26 08:55:49;;;;;;;;;;;17.50;99.90;;;;;;4909031;29;19976;-86
2023/09/26 08:58:15;;;;;;;;;;;17.50;99.90;;;;;;4929117;28;20388;-86
2023/09/26 09:00:40;;;;;;;;;;;17.60;99.90;;;;;;4929252;28;20329;-85
2023/09/26 09:03:06;;;;;;;;;;;17.60;99.90;;;;;;4931282;28;19927;-86
2023/09/26 09:05:32;;;;;;;;;;;17.70;99.90;;;;;;4929753;29;21565;-86
2023/09/26 09:07:57;;;;;;;;;;;17.80;99.90;;;;;;4927786;29;19931;-87
2023/09/26 09:10:23;;;;;;;;;;;17.90;99.90;;;;;;4925842;29;19974;-88
2023/09/26 09:13:00;;;;;;;;;;;18.10;99.90;;;;;;4913749;28;19931;-85
2023/09/26 09:15:26;;;;;;;;;;;18.20;99.90;;;;;;4920248;28;20314;-85
2023/09/26 09:17:52;;;;;;;;;;;18.30;99.90;;;;;;4932410;28;19988;-84
2023/09/26 09:20:36;;;;;;;;;;;18.40;99.90;;;;;;4931117;28;19934;-85
2023/09/26 09:23:05;;;;;;;;;;;18.50;99.90;;;;;;4931725;29;20409;-84
2023/09/26 09:25:35;;;;;;;;;;;18.70;99.90;;;;;;4928319;28;20438;-84
2023/09/26 09:28:01;;;;;;;;;;;19.00;99.90;;;;;;4928340;28;19927;-86
2023/09/26 09:30:28;;;;;;;;;;;19.20;99.90;;;;;;4930831;28;19938;-85
2023/09/26 09:32:54;;;;;;;;;;;19.60;99.90;;;;;;4928963;29;20386;-85
2023/09/26 09:35:20;;;;;;;;;;;20.00;99.90;;;;;;4928865;28;19931;-84
2023/09/26 09:37:47;;;;;;;;;;;20.30;99.90;;;;;;4928852;28;20029;-85
2023/09/26 09:40:15;;;;;;;;;;;20.70;99.90;;;;;;4930707;29;19931;-85
2023/09/26 09:42:41;;;;;;;;;;;20.90;99.90;;;;;;4931701;29;19931;-86
2023/09/26 09:45:09;;;;;;;;;;;20.90;99.90;;;;;;4931612;29;20125;-86
2023/09/26 09:47:36;;;;;;;;;;;20.90;99.90;;;;;;4930061;28;20653;-86
2023/09/26 09:50:02;;;;;;;;;;;20.90;99.90;;;;;;4929103;29;20448;-86
2023/09/26 09:52:30;;;;;;;;;;;20.80;99.90;;;;;;4930112;29;19973;-85
2023/09/26 09:54:56;;;;;;;;;;;20.80;99.90;;;;;;4924824;29;19927;-86
2023/09/26 09:57:22;;;;;;;;;;;20.70;99.90;;;;;;4931495;29;19934;-86
2023/09/26 09:59:50;;;;;;;;;;;20.90;99.90;;;;;;4927523;29;19980;-86
2023/09/26 10:02:16;;;;;;;;;;;20.90;99.90;;;;;;4913286;28;19927;-86
2023/09/26 10:04:42;;;;;;;;;;;20.80;99.90;;;;;;4930407;28;20297;-86
2023/09/26 10:07:09;;;;;;;;;;;20.60;99.90;;;;;;4930678;28;19974;-85
2023/09/26 10:09:35;;;;;;;;;;;20.50;99.90;;;;;;4941219;28;19989;-86
2023/09/26 10:12:01;;;;;;;;;;;20.30;99.90;;;;;;4933889;29;19931;-86
2023/09/26 10:14:30;;;;;;;;;;;20.20;99.90;;;;;;4937166;28;19938;-85
2023/09/26 10:16:55;;;;;;;;;;;20.10;99.90;;;;;;4933565;29;20025;-86
2023/09/26 10:19:25;;;;;;;;;;;20.00;99.90;;;;;;4946251;28;20406;-84
2023/09/26 10:21:52;;;;;;;;;;;20.00;99.90;;;;;;4954602;28;19927;-85
2023/09/26 10:24:18;;;;;;;;;;;20.00;99.90;;;;;;4929984;29;19937;-87
2023/09/26 10:26:45;;;;;;;;;;;20.00;99.90;;;;;;4920119;29;19931;-86
2023/09/26 10:29:11;;;;;;;;;;;20.00;99.90;;;;;;4929010;28;20401;-86
2023/09/26 10:31:38;;;;;;;;;;;20.00;99.90;;;;;;4934461;29;19926;-86
2023/09/26 10:34:06;;;;;;;;;;;20.00;99.90;;;;;;4931112;28;20153;-86
2023/09/26 10:36:33;;;;;;;;;;;19.90;99.90;;;;;;4903989;28;19935;-85
2023/09/26 10:39:05;;;;;;;;;;;20.00;99.90;;;;;;4930053;29;19985;-84
2023/09/26 10:41:30;;;;;;;;;;;20.10;99.90;;;;;;4930074;28;19978;-85
2023/09/26 10:43:56;;;;;;;;;;;20.20;99.90;;;;;;4930292;29;20381;-86
2023/09/26 10:46:22;;;;;;;;;;;20.20;99.90;;;;;;4930667;28;19941;-85
2023/09/26 10:48:48;;;;;;;;;;;20.30;99.90;;;;;;4934355;29;19927;-86
2023/09/26 10:51:14;;;;;;;;;;;20.30;99.90;;;;;;4934037;29;19927;-86
2023/09/26 10:53:40;;;;;;;;;;;20.40;99.90;;;;;;4916781;29;19930;-86
2023/09/26 10:56:08;;;;;;;;;;;20.40;99.90;;;;;;4932538;29;19931;-86
2023/09/26 10:58:33;;;;;;;;;;;20.40;99.90;;;;;;4937119;29;19927;-86
2023/09/26 11:00:59;;;;;;;;;;;20.50;99.90;;;;;;4944267;28;19973;-86
2023/09/26 11:03:25;;;;;;;;;;;20.50;99.90;;;;;;4932912;29;19927;-85
2023/09/26 11:05:50;;;;;;;;;;;20.60;99.90;;;;;;4931710;28;20017;-86
2023/09/26 11:08:19;;;;;;;;;;;20.70;99.90;;;;;;4934060;29;19950;-85
2023/09/26 11:10:45;;;;;;;;;;;20.70;99.90;;;;;;4933847;29;20302;-86
2023/09/26 11:13:11;;;;;;;;;;;20.70;99.90;;;;;;4933820;29;19934;-86
2023/09/26 11:15:37;;;;;;;;;;;20.60;99.90;;;;;;4931862;29;19927;-86
2023/09/26 11:18:03;;;;;;;;;;;20.60;99.90;;;;;;4932983;29;20390;-86
2023/09/26 11:20:28;;;;;;;;;;;20.60;99.90;;;;;;4932450;28;19980;-85
2023/09/26 11:22:54;;;;;;;;;;;20.60;99.90;;;;;;4931545;28;19942;-87
2023/09/26 11:25:19;;;;;;;;;;;20.60;99.90;;;;;;4916995;28;20374;-86
2023/09/26 11:27:46;;;;;;;;;;;20.50;99.90;;;;;;4931651;29;20330;-85
2023/09/26 11:30:14;;;;;;;;;;;20.50;99.90;;;;;;4933369;29;20025;-86
2023/09/26 11:32:50;;;;;;;;;;;20.60;99.90;;;;;;4931788;29;19934;-84
2023/09/26 11:35:16;;;;;;;;;;;20.60;99.90;;;;;;4932141;29;19980;-86
2023/09/26 11:37:42;;;;;;;;;;;20.70;99.90;;;;;;4929350;29;19973;-85
2023/09/26 11:40:11;;;;;;;;;;;20.80;99.90;;;;;;4916591;29;19977;-85
2023/09/26 11:42:40;;;;;;;;;;;20.70;99.90;;;;;;4932657;29;19927;-86
2023/09/26 11:45:06;;;;;;;;;;;20.70;99.90;;;;;;4932288;29;19935;-86
2023/09/26 11:47:32;;;;;;;;;;;20.70;99.90;;;;;;4932714;29;20378;-86
2023/09/26 11:49:57;;;;;;;;;;;20.70;99.90;;;;;;4933315;28;19927;-86
2023/09/26 11:52:23;;;;;;;;;;;20.80;99.90;;;;;;4932192;29;20381;-86
2023/09/26 11:54:50;;;;;;;;;;;20.80;99.90;;;;;;4932005;29;19962;-85
2023/09/26 11:57:16;;;;;;;;;;;20.90;99.90;;;;;;4932784;29;19930;-86
2023/09/26 11:59:42;;;;;;;;;;;21.00;99.90;;;;;;4931648;29;20081;-85
2023/09/26 12:02:08;;;;;;;;;;;21.20;99.90;;;;;;4931609;29;20021;-85
2023/09/26 12:04:33;;;;;;;;;;;21.30;99.90;;;;;;4932998;29;19980;-87
2023/09/26 12:07:00;;;;;;;;;;;21.40;99.90;;;;;;4932899;29;20057;-86
2023/09/26 12:09:28;;;;;;;;;;;21.40;99.90;;;;;;4930862;28;19931;-85
2023/09/26 12:11:53;;;;;;;;;;;21.40;99.90;;;;;;4931189;28;19927;-85
2023/09/26 12:14:19;;;;;;;;;;;21.40;99.90;;;;;;4932826;29;19937;-85
2023/09/26 12:16:49;;;;;;;;;;;21.30;99.90;;;;;;4945382;29;19927;-84
2023/09/26 12:19:15;;;;;;;;;;;21.40;99.90;;;;;;4932198;28;19931;-85
2023/09/26 12:21:41;;;;;;;;;;;21.40;99.90;;;;;;4931886;29;20266;-86
2023/09/26 12:24:07;;;;;;;;;;;21.40;99.90;;;;;;4930623;29;19966;-85
2023/09/26 12:26:32;;;;;;;;;;;21.50;99.90;;;;;;4931435;28;20017;-85
2023/09/26 12:28:58;;;;;;;;;;;21.50;99.90;;;;;;4932158;29;19927;-85
2023/09/26 12:31:24;;;;;;;;;;;21.60;99.90;;;;;;4929950;28;20021;-84
2023/09/26 12:33:49;;;;;;;;;;;21.70;99.90;;;;;;4932653;29;19926;-85
2023/09/26 12:36:15;;;;;;;;;;;21.90;99.90;;;;;;4930770;29;20033;-85
2023/09/26 12:38:41;;;;;;;;;;;22.00;99.90;;;;;;4932183;29;19935;-85
2023/09/26 12:41:07;;;;;;;;;;;22.30;99.90;;;;;;4926633;29;20068;-84
2023/09/26 12:43:33;;;;;;;;;;;22.40;99.90;;;;;;4930823;29;19930;-85
2023/09/26 12:45:58;;;;;;;;;;;22.60;99.90;;;;;;4931728;29;19931;-86
2023/09/26 12:48:24;;;;;;;;;;;22.60;99.90;;;;;;4931466;29;19935;-85
2023/09/26 12:50:49;;;;;;;;;;;22.70;99.90;;;;;;4914496;28;19926;-85
2023/09/26 12:53:15;;;;;;;;;;;22.50;99.90;;;;;;4931955;28;19927;-85
2023/09/26 12:55:40;;;;;;;;;;;22.30;99.90;;;;;;4931616;29;19992;-85
2023/09/26 12:58:06;;;;;;;;;;;22.10;99.90;;;;;;4931486;28;19934;-84
2023/09/26 13:00:34;;;;;;;;;;;22.00;99.90;;;;;;4938531;29;19931;-84
2023/09/26 13:03:00;;;;;;;;;;;22.00;99.90;;;;;;4929714;29;19934;-85
2023/09/26 13:05:26;;;;;;;;;;;22.10;99.90;;;;;;4928363;29;19931;-84
2023/09/26 13:07:51;;;;;;;;;;;22.40;99.90;;;;;;4913678;29;19938;-85
2023/09/26 13:10:17;;;;;;;;;;;22.60;99.90;;;;;;4931900;29;19939;-84
2023/09/26 13:12:42;;;;;;;;;;;22.90;99.90;;;;;;4930174;29;19931;-85
2023/09/26 13:15:08;;;;;;;;;;;23.20;99.90;;;;;;4929895;29;19930;-85
2023/09/26 13:17:34;;;;;;;;;;;23.30;99.90;;;;;;4931204;29;19937;-85
2023/09/26 13:20:00;;;;;;;;;;;23.40;99.90;;;;;;4932170;29;20297;-86
2023/09/26 13:22:26;;;;;;;;;;;23.20;99.90;;;;;;4930730;28;20009;-83
2023/09/26 13:24:51;;;;;;;;;;;23.00;99.90;;;;;;4930457;28;19930;-85
2023/09/26 13:27:17;;;;;;;;;;;22.90;99.90;;;;;;4930122;28;20321;-85
2023/09/26 13:29:42;;;;;;;;;;;22.80;99.90;;;;;;4932050;29;19962;-85
2023/09/26 13:32:08;;;;;;;;;;;22.80;99.90;;;;;;4930759;29;19930;-85
2023/09/26 13:34:33;;;;;;;;;;;22.70;99.90;;;;;;4930789;29;19977;-85
2023/09/26 13:36:59;;;;;;;;;;;22.70;99.90;;;;;;4930636;29;19934;-85
2023/09/26 13:39:25;;;;;;;;;;;22.70;99.90;;;;;;4931371;28;19926;-85
2023/09/26 13:41:51;;;;;;;;;;;22.70;99.90;;;;;;4934054;29;20049;-85
2023/09/26 13:44:16;;;;;;;;;;;22.70;99.90;;;;;;4934403;29;20038;-86
2023/09/26 13:46:42;;;;;;;;;;;22.70;99.90;;;;;;4934295;28;19938;-85
2023/09/26 13:49:08;;;;;;;;;;;22.70;99.90;;;;;;4933756;29;20316;-84
2023/09/26 13:51:34;;;;;;;;;;;22.70;99.90;;;;;;4933670;28;20302;-84
2023/09/26 13:53:59;;;;;;;;;;;22.70;99.90;;;;;;4933488;29;19934;-85
2023/09/26 13:56:25;;;;;;;;;;;22.70;99.90;;;;;;4934190;28;19934;-85
2023/09/26 13:58:51;;;;;;;;;;;22.70;99.90;;;;;;4931059;29;19926;-85
2023/09/26 14:01:16;;;;;;;;;;;22.70;99.90;;;;;;4934176;28;19926;-85
2023/09/26 14:03:42;;;;;;;;;;;22.70;99.90;;;;;;4934713;29;20000;-85
2023/09/26 14:06:09;;;;;;;;;;;22.70;99.90;;;;;;4933913;29;20294;-85
2023/09/26 14:08:34;;;;;;;;;;;22.60;99.90;;;;;;4933224;29;19969;-87
2023/09/26 14:11:00;;;;;;;;;;;22.40;99.90;;;;;;4930346;28;19997;-86